Time;durP1;ratioP1;P1;durP2;ratioP2;P2;SDS_P1;SDS_P2;PMS_P1;PMS_P2;Temp;Humidity;BMP_temperature;BMP_pressure;BME280_temperature;BME280_humidity;BME280_pressure;Samples;Min_cycle;Max_cycle;Signal;HPM_P1;HPM_P2
2023/04/07 00:01:12;;;;;;;;;;;20.50;40.30;;;;;;1553957;75;1938;-65
2023/04/07 00:03:14;;;;;;;;;;;20.40;40.20;;;;;;1538939;75;1139;-64
2023/04/07 00:05:16;;;;;;;;;;;20.40;40.20;;;;;;1556521;75;1529;-65
2023/04/07 00:07:18;;;;;;;;;;;20.40;40.20;;;;;;1557476;75;742;-72
2023/04/07 00:09:20;;;;;;;;;;;20.40;40.20;;;;;;1552130;75;717;-66
2023/04/07 00:11:22;;;;;;;;;;;20.40;40.20;;;;;;1555724;75;671;-66
2023/04/07 00:13:25;;;;;;;;;;;20.40;40.20;;;;;;1558734;75;1110;-68
2023/04/07 00:15:26;;;;;;;;;;;20.40;40.20;;;;;;1537889;75;769;-65
2023/04/07 00:17:28;;;;;;;;;;;20.50;40.20;;;;;;1560444;75;718;-64
2023/04/07 00:19:32;;;;;;;;;;;20.40;40.20;;;;;;1553003;75;1542;-65
2023/04/07 00:21:34;;;;;;;;;;;20.40;40.20;;;;;;1555161;75;1928;-65
2023/04/07 00:23:36;;;;;;;;;;;20.40;40.20;;;;;;1555923;75;1123;-72
2023/04/07 00:25:37;;;;;;;;;;;20.40;40.20;;;;;;1560815;75;731;-72
2023/04/07 00:27:39;;;;;;;;;;;20.40;40.20;;;;;;1557066;75;679;-65
2023/04/07 00:29:42;;;;;;;;;;;20.40;40.20;;;;;;1561876;75;713;-65
2023/04/07 00:31:44;;;;;;;;;;;20.40;40.30;;;;;;1556840;75;721;-65
2023/04/07 00:33:47;;;;;;;;;;;20.40;40.20;;;;;;1557393;75;1304;-65
2023/04/07 00:35:49;;;;;;;;;;;20.40;40.20;;;;;;1556343;75;688;-65
2023/04/07 00:37:51;;;;;;;;;;;20.40;40.20;;;;;;1562913;75;717;-65
2023/04/07 00:39:53;;;;;;;;;;;20.40;40.30;;;;;;1543386;75;662;-64
2023/04/07 00:41:55;;;;;;;;;;;20.40;40.20;;;;;;1540188;75;1955;-65
2023/04/07 00:43:57;;;;;;;;;;;20.40;40.20;;;;;;1545679;75;1168;-65
2023/04/07 00:45:59;;;;;;;;;;;20.40;40.20;;;;;;1552009;75;705;-65
2023/04/07 00:48:01;;;;;;;;;;;20.40;40.20;;;;;;1560818;75;1510;-65
2023/04/07 00:50:06;;;;;;;;;;;20.40;40.20;;;;;;1560467;75;732;-65
2023/04/07 00:52:10;;;;;;;;;;;20.40;40.30;;;;;;1552992;75;715;-65
2023/04/07 00:54:12;;;;;;;;;;;20.40;40.20;;;;;;1557117;75;1105;-65
2023/04/07 00:56:14;;;;;;;;;;;20.40;40.30;;;;;;1559632;75;722;-65
2023/04/07 00:58:16;;;;;;;;;;;20.40;40.30;;;;;;1557758;75;705;-65
2023/04/07 01:00:18;;;;;;;;;;;20.40;40.30;;;;;;1552994;75;731;-65
2023/04/07 01:02:24;;;;;;;;;;;20.40;40.30;;;;;;1565679;75;1941;-65
2023/04/07 01:04:27;;;;;;;;;;;20.40;40.30;;;;;;1559133;75;1185;-65
2023/04/07 01:06:30;;;;;;;;;;;20.30;40.30;;;;;;1560735;75;702;-64
2023/04/07 01:08:36;;;;;;;;;;;20.40;40.30;;;;;;1559936;75;738;-65
2023/04/07 01:10:43;;;;;;;;;;;20.30;40.30;;;;;;1552297;75;717;-65
2023/04/07 01:12:56;;;;;;;;;;;20.30;40.20;;;;;;1557755;75;713;-65
2023/04/07 01:14:58;;;;;;;;;;;20.40;40.20;;;;;;1556257;75;1107;-67
2023/04/07 01:17:00;;;;;;;;;;;20.40;40.30;;;;;;1558759;75;1679;-64
2023/04/07 01:19:04;;;;;;;;;;;20.30;40.30;;;;;;1556659;75;667;-64
2023/04/07 01:21:07;;;;;;;;;;;20.40;40.30;;;;;;1559736;75;1009;-65
2023/04/07 01:23:09;;;;;;;;;;;20.30;40.30;;;;;;1558892;75;1942;-64
2023/04/07 01:25:21;;;;;;;;;;;20.30;40.30;;;;;;1556364;75;707;-65
2023/04/07 01:27:25;;;;;;;;;;;20.40;40.30;;;;;;1558073;75;721;-65
2023/04/07 01:29:30;;;;;;;;;;;20.40;40.30;;;;;;1561083;75;1571;-64
2023/04/07 01:31:32;;;;;;;;;;;20.30;40.30;;;;;;1549440;75;724;-65
2023/04/07 01:33:33;;;;;;;;;;;20.40;40.20;;;;;;1530861;75;1147;-65
2023/04/07 01:35:35;;;;;;;;;;;20.30;40.30;;;;;;1566778;75;872;-64
2023/04/07 01:37:37;;;;;;;;;;;20.30;40.30;;;;;;1544944;75;766;-64
2023/04/07 01:39:39;;;;;;;;;;;20.40;40.30;;;;;;1544616;75;731;-65
2023/04/07 01:41:41;;;;;;;;;;;20.30;40.30;;;;;;1554794;75;1926;-66
2023/04/07 01:43:43;;;;;;;;;;;20.30;40.40;;;;;;1556458;75;1517;-66
2023/04/07 01:45:45;;;;;;;;;;;20.30;40.30;;;;;;1533562;75;714;-66
2023/04/07 01:47:47;;;;;;;;;;;20.30;40.30;;;;;;1552941;75;808;-64
2023/04/07 01:49:49;;;;;;;;;;;20.30;40.30;;;;;;1553231;75;598;-65
2023/04/07 01:51:51;;;;;;;;;;;20.30;40.40;;;;;;1554117;75;668;-64
2023/04/07 01:53:52;;;;;;;;;;;20.30;40.30;;;;;;1554540;75;1193;-64
2023/04/07 01:55:54;;;;;;;;;;;20.30;40.30;;;;;;1559844;75;676;-64
2023/04/07 01:57:56;;;;;;;;;;;20.40;40.30;;;;;;1554906;75;1518;-66
2023/04/07 01:59:58;;;;;;;;;;;20.30;40.40;;;;;;1559088;75;727;-66
2023/04/07 02:02:00;;;;;;;;;;;20.40;40.40;;;;;;1559838;75;1923;-64
2023/04/07 02:04:07;;;;;;;;;;;20.30;40.30;;;;;;1560132;76;1197;-64
2023/04/07 02:06:09;;;;;;;;;;;20.30;40.30;;;;;;1552647;76;1153;-65
2023/04/07 02:08:11;;;;;;;;;;;20.30;40.30;;;;;;1553869;75;609;-65
2023/04/07 02:10:13;;;;;;;;;;;20.30;40.30;;;;;;1553414;75;713;-65
2023/04/07 02:12:15;;;;;;;;;;;20.30;40.30;;;;;;1550732;75;1559;-65
2023/04/07 02:14:19;;;;;;;;;;;20.30;40.30;;;;;;1541612;75;1127;-65
2023/04/07 02:16:21;;;;;;;;;;;20.30;40.40;;;;;;1543269;75;684;-64
2023/04/07 02:18:23;;;;;;;;;;;20.30;40.30;;;;;;1550884;75;762;-65
2023/04/07 02:20:25;;;;;;;;;;;20.30;40.30;;;;;;1561880;75;719;-65
2023/04/07 02:22:27;;;;;;;;;;;20.30;40.30;;;;;;1551374;75;1926;-64
2023/04/07 02:24:29;;;;;;;;;;;20.30;40.40;;;;;;1554415;75;1136;-65
2023/04/07 02:26:32;;;;;;;;;;;20.40;40.30;;;;;;1544913;75;1553;-64
2023/04/07 02:28:34;;;;;;;;;;;20.30;40.30;;;;;;1558903;75;1046;-65
2023/04/07 02:30:36;;;;;;;;;;;20.30;40.30;;;;;;1542775;75;704;-65
2023/04/07 02:32:38;;;;;;;;;;;20.30;40.40;;;;;;1553262;75;692;-65
2023/04/07 02:34:40;;;;;;;;;;;20.30;40.30;;;;;;1549431;75;1147;-64
2023/04/07 02:36:42;;;;;;;;;;;20.30;40.40;;;;;;1549553;75;697;-65
2023/04/07 02:38:44;;;;;;;;;;;20.30;40.30;;;;;;1555607;75;691;-64
2023/04/07 02:40:46;;;;;;;;;;;20.30;40.40;;;;;;1559576;75;1520;-65
2023/04/07 02:42:48;;;;;;;;;;;20.30;40.30;;;;;;1553362;75;1926;-65
2023/04/07 02:44:50;;;;;;;;;;;20.30;40.30;;;;;;1556838;75;1057;-65
2023/04/07 02:46:52;;;;;;;;;;;20.30;40.30;;;;;;1547175;75;753;-65
2023/04/07 02:48:54;;;;;;;;;;;20.30;40.40;;;;;;1560293;75;710;-65
2023/04/07 02:50:56;;;;;;;;;;;20.30;40.40;;;;;;1547146;75;625;-65
2023/04/07 02:52:57;;;;;;;;;;;20.30;40.40;;;;;;1540512;75;673;-70
2023/04/07 02:55:00;;;;;;;;;;;20.30;40.40;;;;;;1549820;75;1724;-64
2023/04/07 02:57:01;;;;;;;;;;;20.30;40.40;;;;;;1556764;75;766;-64
2023/04/07 02:59:03;;;;;;;;;;;20.30;40.50;;;;;;1562037;75;735;-65
2023/04/07 03:01:05;;;;;;;;;;;20.30;40.40;;;;;;1557919;75;713;-65
2023/04/07 03:03:07;;;;;;;;;;;20.20;40.30;;;;;;1550515;75;1940;-65
2023/04/07 03:05:09;;;;;;;;;;;20.30;40.40;;;;;;1564224;75;673;-65
2023/04/07 03:07:11;;;;;;;;;;;20.30;40.40;;;;;;1540920;75;743;-65
2023/04/07 03:09:13;;;;;;;;;;;20.30;40.30;;;;;;1553809;75;1683;-65
2023/04/07 03:11:15;;;;;;;;;;;20.30;40.40;;;;;;1557503;75;723;-64
2023/04/07 03:13:18;;;;;;;;;;;20.30;40.40;;;;;;1551617;75;1180;-65
2023/04/07 03:15:20;;;;;;;;;;;20.30;40.50;;;;;;1556598;75;707;-65
2023/04/07 03:17:22;;;;;;;;;;;20.20;40.30;;;;;;1541662;75;740;-65
2023/04/07 03:19:24;;;;;;;;;;;20.20;40.30;;;;;;1552386;75;745;-65
2023/04/07 03:21:27;;;;;;;;;;;20.30;40.40;;;;;;1552678;75;674;-64
2023/04/07 03:23:29;;;;;;;;;;;20.30;40.40;;;;;;1551245;75;1944;-65
2023/04/07 03:25:31;;;;;;;;;;;20.30;40.50;;;;;;1560680;75;708;-65
2023/04/07 03:27:33;;;;;;;;;;;20.30;40.50;;;;;;1553913;75;730;-65
2023/04/07 03:29:35;;;;;;;;;;;20.30;40.50;;;;;;1546661;75;700;-65
2023/04/07 03:31:37;;;;;;;;;;;20.30;40.40;;;;;;1543162;75;736;-64
2023/04/07 03:33:39;;;;;;;;;;;20.30;40.50;;;;;;1551500;75;1141;-64
2023/04/07 03:35:40;;;;;;;;;;;20.30;40.50;;;;;;1544518;75;756;-65
2023/04/07 03:37:42;;;;;;;;;;;20.30;40.40;;;;;;1519305;76;1697;-65
2023/04/07 03:39:44;;;;;;;;;;;20.30;40.40;;;;;;1488762;79;720;-65
2023/04/07 03:41:46;;;;;;;;;;;20.30;40.40;;;;;;1506306;77;731;-65
2023/04/07 03:43:48;;;;;;;;;;;20.30;40.40;;;;;;1506902;77;1946;-65
2023/04/07 03:45:50;;;;;;;;;;;20.20;40.20;;;;;;1516535;77;771;-64
2023/04/07 03:47:53;;;;;;;;;;;20.30;40.40;;;;;;1514749;77;1070;-65
2023/04/07 03:49:55;;;;;;;;;;;20.20;40.30;;;;;;1513533;77;1523;-66
2023/04/07 03:51:57;;;;;;;;;;;20.20;40.30;;;;;;1529680;76;996;-65
2023/04/07 03:53:59;;;;;;;;;;;20.30;40.50;;;;;;1549909;75;1154;-65
2023/04/07 03:56:01;;;;;;;;;;;20.30;40.40;;;;;;1552025;75;794;-65
2023/04/07 03:58:03;;;;;;;;;;;20.30;40.40;;;;;;1561330;75;995;-65
2023/04/07 04:00:06;;;;;;;;;;;20.30;40.40;;;;;;1557490;75;746;-65
2023/04/07 04:02:07;;;;;;;;;;;20.30;40.40;;;;;;1553940;75;736;-65
2023/04/07 04:04:09;;;;;;;;;;;20.30;40.40;;;;;;1558319;75;1932;-65
2023/04/07 04:06:11;;;;;;;;;;;20.30;40.40;;;;;;1545676;75;1051;-65
2023/04/07 04:08:13;;;;;;;;;;;20.20;40.30;;;;;;1553936;75;760;-65
2023/04/07 04:10:15;;;;;;;;;;;20.30;40.50;;;;;;1555575;76;775;-64
2023/04/07 04:12:17;;;;;;;;;;;20.30;40.40;;;;;;1558014;75;623;-65
2023/04/07 04:14:19;;;;;;;;;;;20.20;40.30;;;;;;1555310;75;1184;-65
2023/04/07 04:16:21;;;;;;;;;;;20.30;40.50;;;;;;1553974;75;694;-65
2023/04/07 04:18:23;;;;;;;;;;;20.30;40.50;;;;;;1552223;75;1514;-65
2023/04/07 04:20:25;;;;;;;;;;;20.30;40.50;;;;;;1558460;75;721;-66
2023/04/07 04:22:27;;;;;;;;;;;20.20;40.50;;;;;;1566252;75;1974;-65
2023/04/07 04:24:28;;;;;;;;;;;20.20;40.50;;;;;;1548610;75;1115;-65
2023/04/07 04:26:30;;;;;;;;;;;20.30;40.70;;;;;;1559685;75;731;-64
2023/04/07 04:28:32;;;;;;;;;;;20.20;40.60;;;;;;1549339;75;720;-64
2023/04/07 04:30:34;;;;;;;;;;;20.20;40.60;;;;;;1544204;75;703;-65
2023/04/07 04:32:36;;;;;;;;;;;20.20;40.70;;;;;;1563390;75;1534;-71
2023/04/07 04:34:40;;;;;;;;;;;20.20;40.70;;;;;;1564604;75;1099;-64
2023/04/07 04:36:42;;;;;;;;;;;20.20;40.70;;;;;;1553774;75;1444;-65
2023/04/07 04:38:44;;;;;;;;;;;20.30;40.80;;;;;;1556934;75;818;-65
2023/04/07 04:40:46;;;;;;;;;;;20.20;40.70;;;;;;1538606;75;696;-65
2023/04/07 04:42:48;;;;;;;;;;;20.30;40.80;;;;;;1547555;75;1936;-65
2023/04/07 04:44:50;;;;;;;;;;;20.20;40.60;;;;;;1558371;75;1143;-65
2023/04/07 04:46:52;;;;;;;;;;;20.30;40.80;;;;;;1561240;75;1545;-65
2023/04/07 04:48:54;;;;;;;;;;;20.20;40.70;;;;;;1555936;75;681;-65
2023/04/07 04:50:56;;;;;;;;;;;20.20;40.70;;;;;;1561700;75;760;-65
2023/04/07 04:52:58;;;;;;;;;;;20.20;40.60;;;;;;1543583;75;715;-65
2023/04/07 04:54:59;;;;;;;;;;;20.20;40.60;;;;;;1549125;75;1036;-65
2023/04/07 04:57:02;;;;;;;;;;;20.20;40.60;;;;;;1554457;75;656;-64
2023/04/07 04:59:04;;;;;;;;;;;20.20;40.50;;;;;;1559455;75;710;-66
2023/04/07 05:01:06;;;;;;;;;;;20.20;40.50;;;;;;1562467;75;1512;-65
2023/04/07 05:03:07;;;;;;;;;;;20.20;40.50;;;;;;1560729;75;1931;-66
2023/04/07 05:05:11;;;;;;;;;;;20.30;40.70;;;;;;1541178;75;695;-65
2023/04/07 05:07:13;;;;;;;;;;;20.30;40.60;;;;;;1539237;75;738;-65
2023/04/07 05:09:15;;;;;;;;;;;20.30;40.70;;;;;;1546837;75;685;-64
2023/04/07 05:11:17;;;;;;;;;;;20.30;40.60;;;;;;1560582;75;722;-64
2023/04/07 05:13:19;;;;;;;;;;;20.30;40.60;;;;;;1554130;75;1173;-65
2023/04/07 05:15:21;;;;;;;;;;;20.30;40.50;;;;;;1560021;75;1298;-65
2023/04/07 05:17:22;;;;;;;;;;;20.30;40.60;;;;;;1539520;75;735;-64
2023/04/07 05:19:26;;;;;;;;;;;20.30;40.60;;;;;;1551442;75;762;-65
2023/04/07 05:21:28;;;;;;;;;;;20.30;40.60;;;;;;1551343;75;718;-66
2023/04/07 05:23:30;;;;;;;;;;;20.30;40.60;;;;;;1561211;75;1935;-66
2023/04/07 05:25:32;;;;;;;;;;;20.30;40.60;;;;;;1547844;75;692;-65
2023/04/07 05:27:34;;;;;;;;;;;20.30;40.60;;;;;;1554642;75;673;-65
2023/04/07 05:29:35;;;;;;;;;;;20.30;40.60;;;;;;1560978;75;1329;-65
2023/04/07 05:31:39;;;;;;;;;;;20.20;40.50;;;;;;1549318;75;743;-65
2023/04/07 05:33:41;;;;;;;;;;;20.20;40.50;;;;;;1553301;75;1149;-65
2023/04/07 05:35:45;;;;;;;;;;;20.20;40.50;;;;;;1556605;75;728;-65
2023/04/07 05:37:47;;;;;;;;;;;20.30;40.60;;;;;;1541701;75;706;-65
2023/04/07 05:39:49;;;;;;;;;;;20.30;40.60;;;;;;1556197;74;808;-66
2023/04/07 05:41:51;;;;;;;;;;;20.30;40.60;;;;;;1545779;75;659;-66
2023/04/07 05:43:53;;;;;;;;;;;20.20;40.40;;;;;;1550587;75;1930;-65
2023/04/07 05:45:55;;;;;;;;;;;20.30;40.60;;;;;;1544432;75;658;-65
2023/04/07 05:47:57;;;;;;;;;;;20.30;40.50;;;;;;1544539;75;703;-65
2023/04/07 05:49:59;;;;;;;;;;;20.30;40.50;;;;;;1557738;75;710;-65
2023/04/07 05:52:06;;;;;;;;;;;20.30;40.50;;;;;;1539441;75;748;-65
2023/04/07 05:54:05;;;;;;;;;;;20.30;40.50;;;;;;1557599;75;1127;-65
2023/04/07 05:56:07;;;;;;;;;;;20.30;40.50;;;;;;1557292;75;744;-64
2023/04/07 05:58:10;;;;;;;;;;;20.30;40.50;;;;;;1561721;75;1525;-65
2023/04/07 06:00:12;;;;;;;;;;;20.30;40.50;;;;;;1561679;75;720;-68
2023/04/07 06:02:14;;;;;;;;;;;20.30;40.50;;;;;;1536846;75;762;-65
2023/04/07 06:04:16;;;;;;;;;;;20.30;40.50;;;;;;1548933;75;1947;-64
2023/04/07 06:06:18;;;;;;;;;;;20.30;40.50;;;;;;1555018;75;710;-65
2023/04/07 06:08:20;;;;;;;;;;;20.30;40.50;;;;;;1563581;75;703;-66
2023/04/07 06:10:21;;;;;;;;;;;20.20;40.40;;;;;;1553575;75;731;-65
2023/04/07 06:12:23;;;;;;;;;;;20.30;40.60;;;;;;1555219;75;1771;-65
2023/04/07 06:14:25;;;;;;;;;;;20.30;40.50;;;;;;1552550;75;1192;-65
2023/04/07 06:16:27;;;;;;;;;;;20.30;40.60;;;;;;1561363;75;716;-65
2023/04/07 06:18:29;;;;;;;;;;;20.30;40.50;;;;;;1540574;75;704;-65
2023/04/07 06:20:31;;;;;;;;;;;20.30;40.50;;;;;;1544432;75;733;-65
2023/04/07 06:22:33;;;;;;;;;;;20.20;40.50;;;;;;1548464;75;761;-64
2023/04/07 06:24:35;;;;;;;;;;;20.30;40.50;;;;;;1549348;75;1938;-65
2023/04/07 06:26:36;;;;;;;;;;;20.30;40.50;;;;;;1555163;75;676;-65
2023/04/07 06:28:38;;;;;;;;;;;20.30;40.50;;;;;;1560948;75;601;-64
2023/04/07 06:30:40;;;;;;;;;;;20.30;40.50;;;;;;1547203;75;728;-66
2023/04/07 06:32:42;;;;;;;;;;;20.30;40.60;;;;;;1557069;75;734;-66
2023/04/07 06:34:44;;;;;;;;;;;20.30;40.50;;;;;;1556700;75;1140;-65
2023/04/07 06:36:46;;;;;;;;;;;20.30;40.50;;;;;;1544061;75;742;-65
2023/04/07 06:38:48;;;;;;;;;;;20.20;40.30;;;;;;1550085;75;1532;-64
2023/04/07 06:40:51;;;;;;;;;;;20.20;40.40;;;;;;1553695;75;866;-66
2023/04/07 06:42:53;;;;;;;;;;;20.20;40.50;;;;;;1546008;75;1034;-65
2023/04/07 06:44:55;;;;;;;;;;;20.20;40.40;;;;;;1552455;75;1931;-65
2023/04/07 06:46:57;;;;;;;;;;;20.20;40.40;;;;;;1561725;75;802;-66
2023/04/07 06:48:59;;;;;;;;;;;20.30;40.50;;;;;;1562417;75;717;-65
2023/04/07 06:51:01;;;;;;;;;;;20.30;40.50;;;;;;1558109;75;902;-66
2023/04/07 06:53:02;;;;;;;;;;;20.30;40.50;;;;;;1566350;75;1551;-66
2023/04/07 06:55:06;;;;;;;;;;;20.30;40.50;;;;;;1555307;75;1112;-73
2023/04/07 06:57:10;;;;;;;;;;;20.30;40.60;;;;;;1557783;75;598;-66
2023/04/07 06:59:12;;;;;;;;;;;20.30;40.50;;;;;;1543802;75;937;-66
2023/04/07 07:01:14;;;;;;;;;;;20.30;40.50;;;;;;1536078;75;711;-65
2023/04/07 07:03:15;;;;;;;;;;;20.30;40.50;;;;;;1554706;75;1099;-66
2023/04/07 07:05:17;;;;;;;;;;;20.30;40.50;;;;;;1558329;75;1948;-65
2023/04/07 07:07:19;;;;;;;;;;;20.30;40.50;;;;;;1552719;75;1541;-65
2023/04/07 07:09:21;;;;;;;;;;;20.30;40.50;;;;;;1551477;75;704;-65
2023/04/07 07:11:23;;;;;;;;;;;20.30;40.50;;;;;;1545655;75;709;-64
2023/04/07 07:13:25;;;;;;;;;;;20.30;40.50;;;;;;1545688;76;1180;-65
2023/04/07 07:15:27;;;;;;;;;;;20.30;40.50;;;;;;1556266;75;772;-65
2023/04/07 07:17:29;;;;;;;;;;;20.30;40.40;;;;;;1560762;75;726;-71
2023/04/07 07:19:31;;;;;;;;;;;20.30;40.50;;;;;;1560182;75;722;-66
2023/04/07 07:21:33;;;;;;;;;;;20.30;40.50;;;;;;1552808;75;1547;-70
2023/04/07 07:23:35;;;;;;;;;;;20.30;40.40;;;;;;1548599;75;1936;-66
2023/04/07 07:25:37;;;;;;;;;;;20.30;40.50;;;;;;1549432;75;710;-66
2023/04/07 07:27:39;;;;;;;;;;;20.40;40.50;;;;;;1545821;75;745;-66
2023/04/07 07:29:40;;;;;;;;;;;20.30;40.50;;;;;;1542217;75;710;-66
2023/04/07 07:31:42;;;;;;;;;;;20.30;40.50;;;;;;1535376;75;795;-65
2023/04/07 07:33:47;;;;;;;;;;;20.40;40.50;;;;;;1557659;75;1150;-64
2023/04/07 07:35:48;;;;;;;;;;;20.40;40.50;;;;;;1550319;75;1196;-65
2023/04/07 07:37:50;;;;;;;;;;;20.40;40.50;;;;;;1545441;75;699;-65
2023/04/07 07:39:52;;;;;;;;;;;20.40;40.50;;;;;;1565236;75;850;-65
2023/04/07 07:41:54;;;;;;;;;;;20.40;40.50;;;;;;1540715;75;704;-65
2023/04/07 07:43:56;;;;;;;;;;;20.30;40.50;;;;;;1547838;75;1931;-64
2023/04/07 07:45:58;;;;;;;;;;;20.40;40.50;;;;;;1556947;75;690;-65
2023/04/07 07:48:00;;;;;;;;;;;20.40;40.60;;;;;;1558997;75;764;-65
2023/04/07 07:50:03;;;;;;;;;;;20.40;40.60;;;;;;1543105;75;1364;-65
2023/04/07 07:52:05;;;;;;;;;;;20.40;40.60;;;;;;1560298;75;749;-65
2023/04/07 07:54:08;;;;;;;;;;;20.40;40.60;;;;;;1556883;75;1157;-65
2023/04/07 07:56:10;;;;;;;;;;;20.40;40.60;;;;;;1547768;75;811;-65
2023/04/07 07:58:12;;;;;;;;;;;20.40;40.50;;;;;;1546209;75;731;-65
2023/04/07 08:00:14;;;;;;;;;;;20.40;40.50;;;;;;1557223;75;705;-65
2023/04/07 08:02:16;;;;;;;;;;;20.40;40.50;;;;;;1539389;75;749;-65
2023/04/07 08:04:18;;;;;;;;;;;20.50;40.60;;;;;;1563733;75;1946;-65
2023/04/07 08:06:20;;;;;;;;;;;20.40;40.50;;;;;;1549106;75;741;-65
2023/04/07 08:08:22;;;;;;;;;;;20.50;40.50;;;;;;1540788;75;720;-65
2023/04/07 08:10:24;;;;;;;;;;;20.40;40.50;;;;;;1545014;75;707;-65
2023/04/07 08:12:26;;;;;;;;;;;20.50;40.50;;;;;;1542388;75;726;-65
2023/04/07 08:14:28;;;;;;;;;;;20.50;40.50;;;;;;1557163;75;1163;-65
2023/04/07 08:16:30;;;;;;;;;;;20.50;40.50;;;;;;1555973;75;708;-65
2023/04/07 08:18:32;;;;;;;;;;;20.50;40.50;;;;;;1559538;75;1534;-64
2023/04/07 08:20:35;;;;;;;;;;;20.60;40.50;;;;;;1556255;75;749;-65
2023/04/07 08:22:36;;;;;;;;;;;20.60;40.50;;;;;;1557922;75;684;-65
2023/04/07 08:24:38;;;;;;;;;;;20.50;40.50;;;;;;1560692;75;1934;-65
2023/04/07 08:26:40;;;;;;;;;;;20.50;40.50;;;;;;1550675;75;821;-66
2023/04/07 08:28:42;;;;;;;;;;;20.50;40.50;;;;;;1536973;75;713;-66
2023/04/07 08:30:44;;;;;;;;;;;20.60;40.50;;;;;;1530297;75;707;-66
2023/04/07 08:32:46;;;;;;;;;;;20.60;40.50;;;;;;1557502;75;1356;-65
2023/04/07 08:34:48;;;;;;;;;;;20.60;40.40;;;;;;1553741;75;1132;-65
2023/04/07 08:36:50;;;;;;;;;;;20.70;40.60;;;;;;1560855;75;748;-65
2023/04/07 08:38:52;;;;;;;;;;;20.70;40.60;;;;;;1564125;75;714;-64
2023/04/07 08:40:55;;;;;;;;;;;20.70;40.50;;;;;;1555697;75;773;-65
2023/04/07 08:42:57;;;;;;;;;;;20.60;40.40;;;;;;1552034;75;1003;-65
2023/04/07 08:45:03;;;;;;;;;;;20.70;40.50;;;;;;1554893;75;1911;-65
2023/04/07 08:47:06;;;;;;;;;;;20.60;40.40;;;;;;1555565;75;1415;-65
2023/04/07 08:49:13;;;;;;;;;;;20.70;40.50;;;;;;1550785;75;772;-72
2023/04/07 08:51:12;;;;;;;;;;;20.70;40.50;;;;;;1556143;75;1054;-66
2023/04/07 08:53:14;;;;;;;;;;;20.70;40.50;;;;;;1562113;75;1160;-65
2023/04/07 08:55:16;;;;;;;;;;;20.80;40.50;;;;;;1553735;75;770;-65
2023/04/07 08:57:18;;;;;;;;;;;20.70;40.50;;;;;;1561325;75;727;-65
2023/04/07 08:59:25;;;;;;;;;;;20.80;40.50;;;;;;1556714;75;1475;-65
2023/04/07 09:01:23;;;;;;;;;;;20.80;40.40;;;;;;1505983;76;1023;-65
2023/04/07 09:03:25;;;;;;;;;;;20.80;40.30;;;;;;1555080;75;1111;-65
2023/04/07 09:05:27;;;;;;;;;;;20.80;40.20;;;;;;1552862;75;1935;-72
2023/04/07 09:07:29;;;;;;;;;;;20.80;40.30;;;;;;1562109;75;736;-65
2023/04/07 09:09:31;;;;;;;;;;;20.90;40.40;;;;;;1561449;75;738;-65
2023/04/07 09:11:36;;;;;;;;;;;20.90;40.30;;;;;;1564067;75;688;-65
2023/04/07 09:13:38;;;;;;;;;;;20.90;40.20;;;;;;1545012;75;1339;-66
2023/04/07 09:15:40;;;;;;;;;;;20.90;40.20;;;;;;1553991;75;711;-66
2023/04/07 09:17:42;;;;;;;;;;;20.90;40.20;;;;;;1552685;75;723;-66
2023/04/07 09:19:44;;;;;;;;;;;21.00;40.20;;;;;;1557158;75;730;-66
2023/04/07 09:21:49;;;;;;;;;;;21.00;40.20;;;;;;1562908;75;699;-65
2023/04/07 09:23:51;;;;;;;;;;;21.00;40.20;;;;;;1537130;75;1119;-65
2023/04/07 09:25:53;;;;;;;;;;;20.90;40.10;;;;;;1560078;75;1940;-65
2023/04/07 09:27:55;;;;;;;;;;;21.00;40.00;;;;;;1548796;75;1542;-65
2023/04/07 09:29:57;;;;;;;;;;;21.00;40.00;;;;;;1551473;75;792;-65
2023/04/07 09:31:59;;;;;;;;;;;21.00;40.00;;;;;;1526477;76;1098;-65
2023/04/07 09:34:01;;;;;;;;;;;21.10;40.00;;;;;;1520148;76;1143;-65
2023/04/07 09:36:05;;;;;;;;;;;21.10;40.00;;;;;;1494012;78;726;-65
2023/04/07 09:38:07;;;;;;;;;;;21.10;40.00;;;;;;1509776;77;709;-65
2023/04/07 09:40:09;;;;;;;;;;;21.10;40.00;;;;;;1528830;77;746;-65
2023/04/07 09:42:11;;;;;;;;;;;21.10;39.80;;;;;;1520549;78;1309;-65
2023/04/07 09:44:13;;;;;;;;;;;21.10;39.80;;;;;;1515225;77;1149;-65
2023/04/07 09:46:15;;;;;;;;;;;21.10;39.70;;;;;;1522864;76;1921;-65
2023/04/07 09:48:19;;;;;;;;;;;21.10;39.60;;;;;;1510035;76;827;-65
2023/04/07 09:50:34;;;;;;;;;;;21.10;39.60;;;;;;1510344;78;706;-65
2023/04/07 09:52:49;;;;;;;;;;;21.10;39.60;;;;;;1509390;77;582;-65
2023/04/07 09:54:51;;;;;;;;;;;21.10;39.70;;;;;;1490901;78;1137;-65
2023/04/07 09:56:53;;;;;;;;;;;21.10;39.60;;;;;;1489021;79;1270;-65
2023/04/07 09:58:55;;;;;;;;;;;21.10;39.60;;;;;;1494417;78;700;-65
2023/04/07 10:00:57;;;;;;;;;;;21.10;39.50;;;;;;1493432;78;773;-68
2023/04/07 10:02:59;;;;;;;;;;;21.10;39.40;;;;;;1513532;78;752;-65
2023/04/07 10:05:01;;;;;;;;;;;21.10;39.50;;;;;;1519131;77;1957;-65
2023/04/07 10:07:03;;;;;;;;;;;21.10;39.40;;;;;;1511814;78;720;-65
2023/04/07 10:09:05;;;;;;;;;;;21.10;39.40;;;;;;1473450;79;737;-65
2023/04/07 10:11:07;;;;;;;;;;;21.00;39.30;;;;;;1537606;75;1705;-65
2023/04/07 10:13:09;;;;;;;;;;;21.00;39.30;;;;;;1543165;75;1182;-65
2023/04/07 10:15:12;;;;;;;;;;;21.00;39.30;;;;;;1549182;75;764;-65
2023/04/07 10:17:17;;;;;;;;;;;21.00;39.20;;;;;;1540768;75;752;-65
2023/04/07 10:19:18;;;;;;;;;;;21.00;39.20;;;;;;1526622;75;1001;-65
2023/04/07 10:21:20;;;;;;;;;;;21.00;39.20;;;;;;1540921;75;751;-65
2023/04/07 10:23:23;;;;;;;;;;;21.00;39.20;;;;;;1543791;75;1149;-65
2023/04/07 10:25:25;;;;;;;;;;;21.00;39.20;;;;;;1537624;75;1929;-65
2023/04/07 10:27:29;;;;;;;;;;;21.00;39.20;;;;;;1546101;75;707;-65
2023/04/07 10:29:31;;;;;;;;;;;21.00;39.20;;;;;;1550634;75;982;-65
2023/04/07 10:31:33;;;;;;;;;;;21.00;39.20;;;;;;1548668;75;1044;-65
2023/04/07 10:33:50;;;;;;;;;;;21.00;39.30;;;;;;1539372;75;1173;-65
2023/04/07 10:36:05;;;;;;;;;;;21.00;39.20;;;;;;1512003;76;1312;-64
2023/04/07 10:38:12;;;;;;;;;;;21.00;39.20;;;;;;1527686;75;1268;-65
2023/04/07 10:40:25;;;;;;;;;;;20.90;39.20;;;;;;1540099;76;689;-65
2023/04/07 10:42:39;;;;;;;;;;;21.00;39.20;;;;;;1529249;75;1111;-65
2023/04/07 10:44:43;;;;;;;;;;;21.00;39.20;;;;;;1548403;75;1939;-65
2023/04/07 10:46:51;;;;;;;;;;;21.00;39.20;;;;;;1532518;75;627;-65
2023/04/07 10:49:09;;;;;;;;;;;21.00;39.20;;;;;;1544165;76;961;-65
2023/04/07 10:51:13;;;;;;;;;;;21.00;39.30;;;;;;1541043;75;601;-65
2023/04/07 10:53:15;;;;;;;;;;;21.00;39.30;;;;;;1552496;75;1468;-65
2023/04/07 10:55:33;;;;;;;;;;;20.90;39.30;;;;;;1548453;75;751;-65
2023/04/07 10:57:34;;;;;;;;;;;20.90;39.40;;;;;;1547087;76;745;-65
2023/04/07 10:59:37;;;;;;;;;;;21.00;39.40;;;;;;1545108;75;729;-65
2023/04/07 11:01:39;;;;;;;;;;;20.90;39.40;;;;;;1535139;75;756;-65
2023/04/07 11:03:42;;;;;;;;;;;20.90;39.40;;;;;;1547683;75;1138;-65
2023/04/07 11:05:44;;;;;;;;;;;21.00;39.30;;;;;;1543147;75;1936;-66
2023/04/07 11:07:48;;;;;;;;;;;21.00;39.30;;;;;;1553908;75;1431;-69
2023/04/07 11:09:50;;;;;;;;;;;20.90;39.30;;;;;;1553940;75;1129;-65
2023/04/07 11:11:52;;;;;;;;;;;21.00;39.40;;;;;;1547907;75;1027;-65
2023/04/07 11:13:54;;;;;;;;;;;20.90;39.40;;;;;;1543941;75;1145;-66
2023/04/07 11:15:56;;;;;;;;;;;20.90;39.40;;;;;;1542948;75;717;-65
2023/04/07 11:18:08;;;;;;;;;;;21.00;39.40;;;;;;1536315;75;690;-65
2023/04/07 11:20:10;;;;;;;;;;;21.00;39.40;;;;;;1535377;75;1592;-66
2023/04/07 11:22:15;;;;;;;;;;;21.00;39.30;;;;;;1541418;75;704;-65
2023/04/07 11:24:40;;;;;;;;;;;21.00;39.40;;;;;;1541703;75;1191;-65
2023/04/07 11:26:40;;;;;;;;;;;21.00;39.40;;;;;;1532111;75;1928;-65
2023/04/07 11:28:51;;;;;;;;;;;20.90;39.40;;;;;;1530803;75;685;-65
2023/04/07 11:30:53;;;;;;;;;;;20.90;39.40;;;;;;1540092;75;861;-66
2023/04/07 11:32:58;;;;;;;;;;;20.90;39.40;;;;;;1537275;75;727;-65
2023/04/07 11:35:00;;;;;;;;;;;20.90;39.40;;;;;;1547162;75;1314;-65
2023/04/07 11:37:20;;;;;;;;;;;20.90;39.50;;;;;;1540252;75;716;-65
2023/04/07 11:39:22;;;;;;;;;;;20.90;39.50;;;;;;1553223;75;929;-66
2023/04/07 11:41:24;;;;;;;;;;;20.90;39.40;;;;;;1555059;75;810;-66
2023/04/07 11:43:27;;;;;;;;;;;20.90;39.40;;;;;;1543995;75;1129;-64
2023/04/07 11:45:29;;;;;;;;;;;20.90;39.40;;;;;;1556039;75;1927;-66
2023/04/07 11:47:37;;;;;;;;;;;20.90;39.40;;;;;;1551811;75;753;-66
2023/04/07 11:49:45;;;;;;;;;;;20.90;39.40;;;;;;1545657;75;1633;-65
2023/04/07 11:51:47;;;;;;;;;;;20.90;39.40;;;;;;1550246;75;736;-65
2023/04/07 11:53:55;;;;;;;;;;;20.90;39.40;;;;;;1536212;75;1165;-65
2023/04/07 11:56:04;;;;;;;;;;;20.90;39.40;;;;;;1544960;75;705;-70
2023/04/07 11:58:09;;;;;;;;;;;20.90;39.50;;;;;;1541867;75;740;-65
2023/04/07 12:00:13;;;;;;;;;;;20.80;39.40;;;;;;1548205;75;1173;-65
2023/04/07 12:02:16;;;;;;;;;;;20.90;39.50;;;;;;1530757;75;1356;-65
2023/04/07 12:04:18;;;;;;;;;;;20.80;39.40;;;;;;1545987;75;1146;-65
2023/04/07 12:06:33;;;;;;;;;;;20.90;39.60;;;;;;1539525;75;1937;-65
2023/04/07 12:08:38;;;;;;;;;;;20.90;39.60;;;;;;1520684;75;1097;-66
2023/04/07 12:10:40;;;;;;;;;;;20.90;39.60;;;;;;1549541;75;1079;-65
2023/04/07 12:12:45;;;;;;;;;;;20.90;39.60;;;;;;1549236;75;570;-65